sensor_id;sensor_type;location;lat;lon;timestamp;P1;durP1;ratioP1;P2;durP2;ratioP2
7525;SDS011;3804;50.860;6.208;2023-02-12T00:01:11;90.07;;;40.57;;
7525;SDS011;3804;50.860;6.208;2023-02-12T00:03:38;89.97;;;40.37;;
7525;SDS011;3804;50.860;6.208;2023-02-12T00:06:05;89.47;;;39.03;;
7525;SDS011;3804;50.860;6.208;2023-02-12T00:08:32;83.43;;;38.27;;
7525;SDS011;3804;50.860;6.208;2023-02-12T00:10:59;81.87;;;37.17;;
7525;SDS011;3804;50.860;6.208;2023-02-12T00:13:25;83.60;;;37.27;;
7525;SDS011;3804;50.860;6.208;2023-02-12T00:15:55;84.50;;;38.73;;
7525;SDS011;3804;50.860;6.208;2023-02-12T00:18:22;80.17;;;36.67;;
7525;SDS011;3804;50.860;6.208;2023-02-12T00:20:49;84.50;;;38.33;;
7525;SDS011;3804;50.860;6.208;2023-02-12T00:23:16;82.87;;;37.43;;
7525;SDS011;3804;50.860;6.208;2023-02-12T00:25:42;81.57;;;37.33;;
7525;SDS011;3804;50.860;6.208;2023-02-12T00:28:09;82.17;;;37.77;;
7525;SDS011;3804;50.860;6.208;2023-02-12T00:30:36;73.60;;;36.33;;
7525;SDS011;3804;50.860;6.208;2023-02-12T00:33:02;79.43;;;34.93;;
7525;SDS011;3804;50.860;6.208;2023-02-12T00:35:29;75.00;;;35.10;;
7525;SDS011;3804;50.860;6.208;2023-02-12T00:37:56;83.10;;;36.87;;
7525;SDS011;3804;50.860;6.208;2023-02-12T00:40:23;74.87;;;34.93;;
7525;SDS011;3804;50.860;6.208;2023-02-12T00:42:50;78.33;;;35.87;;
7525;SDS011;3804;50.860;6.208;2023-02-12T00:45:17;74.70;;;35.67;;
7525;SDS011;3804;50.860;6.208;2023-02-12T00:47:44;80.57;;;38.33;;
7525;SDS011;3804;50.860;6.208;2023-02-12T00:50:10;69.40;;;34.80;;
7525;SDS011;3804;50.860;6.208;2023-02-12T00:52:39;77.63;;;35.30;;
7525;SDS011;3804;50.860;6.208;2023-02-12T00:55:06;76.83;;;36.20;;
7525;SDS011;3804;50.860;6.208;2023-02-12T00:57:33;78.60;;;35.97;;
7525;SDS011;3804;50.860;6.208;2023-02-12T01:00:00;84.10;;;38.53;;
7525;SDS011;3804;50.860;6.208;2023-02-12T01:02:26;75.47;;;34.63;;
7525;SDS011;3804;50.860;6.208;2023-02-12T01:04:53;73.27;;;33.73;;
7525;SDS011;3804;50.860;6.208;2023-02-12T01:07:22;75.73;;;35.47;;
7525;SDS011;3804;50.860;6.208;2023-02-12T01:09:48;78.17;;;36.03;;
7525;SDS011;3804;50.860;6.208;2023-02-12T01:12:15;72.30;;;35.20;;
7525;SDS011;3804;50.860;6.208;2023-02-12T01:14:42;73.93;;;34.63;;
7525;SDS011;3804;50.860;6.208;2023-02-12T01:17:09;75.30;;;36.53;;
7525;SDS011;3804;50.860;6.208;2023-02-12T01:19:35;72.43;;;36.90;;
7525;SDS011;3804;50.860;6.208;2023-02-12T01:22:02;73.63;;;34.53;;
7525;SDS011;3804;50.860;6.208;2023-02-12T01:24:29;76.57;;;35.00;;
7525;SDS011;3804;50.860;6.208;2023-02-12T01:26:57;72.50;;;34.20;;
7525;SDS011;3804;50.860;6.208;2023-02-12T01:29:23;83.47;;;37.47;;
7525;SDS011;3804;50.860;6.208;2023-02-12T01:31:50;72.90;;;35.63;;
7525;SDS011;3804;50.860;6.208;2023-02-12T01:34:17;72.30;;;35.67;;
7525;SDS011;3804;50.860;6.208;2023-02-12T01:36:44;69.27;;;33.80;;
7525;SDS011;3804;50.860;6.208;2023-02-12T01:39:11;80.70;;;35.57;;
7525;SDS011;3804;50.860;6.208;2023-02-12T01:41:39;72.80;;;35.50;;
7525;SDS011;3804;50.860;6.208;2023-02-12T01:46:33;75.83;;;34.47;;
7525;SDS011;3804;50.860;6.208;2023-02-12T01:49:00;74.90;;;34.77;;
7525;SDS011;3804;50.860;6.208;2023-02-12T01:51:28;73.90;;;34.83;;
7525;SDS011;3804;50.860;6.208;2023-02-12T01:53:55;76.03;;;35.60;;
7525;SDS011;3804;50.860;6.208;2023-02-12T01:56:24;74.47;;;34.93;;
7525;SDS011;3804;50.860;6.208;2023-02-12T01:58:51;75.20;;;34.27;;
7525;SDS011;3804;50.860;6.208;2023-02-12T02:01:20;78.23;;;34.67;;
7525;SDS011;3804;50.860;6.208;2023-02-12T02:03:49;70.87;;;33.30;;
7525;SDS011;3804;50.860;6.208;2023-02-12T02:06:17;69.40;;;34.40;;
7525;SDS011;3804;50.860;6.208;2023-02-12T02:08:46;77.37;;;35.33;;
7525;SDS011;3804;50.860;6.208;2023-02-12T02:11:13;72.47;;;34.67;;
7525;SDS011;3804;50.860;6.208;2023-02-12T02:13:59;74.27;;;35.20;;
7525;SDS011;3804;50.860;6.208;2023-02-12T02:16:51;75.33;;;33.53;;
7525;SDS011;3804;50.860;6.208;2023-02-12T02:22:00;63.73;;;31.20;;
7525;SDS011;3804;50.860;6.208;2023-02-12T02:27:14;68.93;;;32.93;;
7525;SDS011;3804;50.860;6.208;2023-02-12T02:32:29;63.73;;;32.77;;
7525;SDS011;3804;50.860;6.208;2023-02-12T02:37:46;66.27;;;32.63;;
7525;SDS011;3804;50.860;6.208;2023-02-12T02:40:24;70.10;;;33.83;;
7525;SDS011;3804;50.860;6.208;2023-02-12T02:42:53;65.33;;;32.60;;
7525;SDS011;3804;50.860;6.208;2023-02-12T02:45:39;66.37;;;32.80;;
7525;SDS011;3804;50.860;6.208;2023-02-12T02:50:44;62.87;;;31.57;;
7525;SDS011;3804;50.860;6.208;2023-02-12T02:53:13;61.20;;;32.43;;
7525;SDS011;3804;50.860;6.208;2023-02-12T02:55:44;65.97;;;33.33;;
7525;SDS011;3804;50.860;6.208;2023-02-12T02:58:12;70.50;;;33.20;;
7525;SDS011;3804;50.860;6.208;2023-02-12T03:00:47;68.70;;;34.33;;
7525;SDS011;3804;50.860;6.208;2023-02-12T03:06:03;64.73;;;33.00;;
7525;SDS011;3804;50.860;6.208;2023-02-12T03:08:35;58.83;;;31.43;;
7525;SDS011;3804;50.860;6.208;2023-02-12T03:11:07;65.03;;;31.93;;
7525;SDS011;3804;50.860;6.208;2023-02-12T03:13:36;65.17;;;32.17;;
7525;SDS011;3804;50.860;6.208;2023-02-12T03:16:05;68.10;;;32.87;;
7525;SDS011;3804;50.860;6.208;2023-02-12T03:21:25;64.57;;;31.20;;
7525;SDS011;3804;50.860;6.208;2023-02-12T03:23:59;64.37;;;32.43;;
7525;SDS011;3804;50.860;6.208;2023-02-12T03:26:32;68.67;;;33.33;;
7525;SDS011;3804;50.860;6.208;2023-02-12T03:29:00;62.37;;;32.90;;
7525;SDS011;3804;50.860;6.208;2023-02-12T03:36:44;69.00;;;33.23;;
7525;SDS011;3804;50.860;6.208;2023-02-12T03:39:29;67.63;;;33.60;;
7525;SDS011;3804;50.860;6.208;2023-02-12T03:42:05;68.37;;;33.57;;
7525;SDS011;3804;50.860;6.208;2023-02-12T03:52:17;78.07;;;35.17;;
7525;SDS011;3804;50.860;6.208;2023-02-12T03:54:44;70.10;;;33.87;;
7525;SDS011;3804;50.860;6.208;2023-02-12T03:57:16;69.47;;;34.27;;
7525;SDS011;3804;50.860;6.208;2023-02-12T03:59:43;77.50;;;35.50;;
7525;SDS011;3804;50.860;6.208;2023-02-12T04:02:10;78.27;;;36.17;;
7525;SDS011;3804;50.860;6.208;2023-02-12T04:04:37;77.47;;;35.60;;
7525;SDS011;3804;50.860;6.208;2023-02-12T04:07:04;78.00;;;35.90;;
7525;SDS011;3804;50.860;6.208;2023-02-12T04:09:31;76.83;;;35.90;;
7525;SDS011;3804;50.860;6.208;2023-02-12T04:12:01;80.13;;;35.17;;
7525;SDS011;3804;50.860;6.208;2023-02-12T04:14:50;74.90;;;35.27;;
7525;SDS011;3804;50.860;6.208;2023-02-12T04:30:06;83.43;;;35.97;;
7525;SDS011;3804;50.860;6.208;2023-02-12T04:32:40;77.50;;;35.83;;
7525;SDS011;3804;50.860;6.208;2023-02-12T04:40:20;79.57;;;35.23;;
7525;SDS011;3804;50.860;6.208;2023-02-12T04:42:48;72.40;;;34.53;;
7525;SDS011;3804;50.860;6.208;2023-02-12T04:45:26;75.07;;;34.63;;
7525;SDS011;3804;50.860;6.208;2023-02-12T04:47:53;77.60;;;35.23;;
7525;SDS011;3804;50.860;6.208;2023-02-12T04:50:20;72.13;;;34.50;;
7525;SDS011;3804;50.860;6.208;2023-02-12T04:52:46;73.27;;;35.30;;
7525;SDS011;3804;50.860;6.208;2023-02-12T04:55:13;72.50;;;33.63;;
7525;SDS011;3804;50.860;6.208;2023-02-12T04:57:40;71.67;;;34.60;;
7525;SDS011;3804;50.860;6.208;2023-02-12T05:00:07;71.80;;;35.37;;
7525;SDS011;3804;50.860;6.208;2023-02-12T05:02:35;77.00;;;36.10;;
7525;SDS011;3804;50.860;6.208;2023-02-12T05:05:02;76.60;;;35.80;;
7525;SDS011;3804;50.860;6.208;2023-02-12T05:07:29;79.47;;;37.10;;
7525;SDS011;3804;50.860;6.208;2023-02-12T05:09:55;76.63;;;36.17;;
7525;SDS011;3804;50.860;6.208;2023-02-12T05:12:22;70.37;;;34.37;;
7525;SDS011;3804;50.860;6.208;2023-02-12T05:14:49;76.87;;;35.13;;
7525;SDS011;3804;50.860;6.208;2023-02-12T05:17:16;75.37;;;36.57;;
7525;SDS011;3804;50.860;6.208;2023-02-12T05:19:42;80.57;;;35.03;;
7525;SDS011;3804;50.860;6.208;2023-02-12T05:22:09;77.70;;;34.73;;
7525;SDS011;3804;50.860;6.208;2023-02-12T05:24:35;74.57;;;33.50;;
7525;SDS011;3804;50.860;6.208;2023-02-12T05:27:02;77.53;;;35.73;;
7525;SDS011;3804;50.860;6.208;2023-02-12T05:29:29;78.93;;;34.57;;
7525;SDS011;3804;50.860;6.208;2023-02-12T05:31:55;75.37;;;36.27;;
7525;SDS011;3804;50.860;6.208;2023-02-12T05:34:22;76.57;;;34.73;;
7525;SDS011;3804;50.860;6.208;2023-02-12T05:36:49;68.67;;;34.20;;
7525;SDS011;3804;50.860;6.208;2023-02-12T05:39:15;74.07;;;34.50;;
7525;SDS011;3804;50.860;6.208;2023-02-12T05:41:42;70.90;;;34.57;;
7525;SDS011;3804;50.860;6.208;2023-02-12T05:44:09;75.73;;;34.13;;
7525;SDS011;3804;50.860;6.208;2023-02-12T05:46:40;75.00;;;35.03;;
7525;SDS011;3804;50.860;6.208;2023-02-12T05:49:08;69.20;;;33.87;;
7525;SDS011;3804;50.860;6.208;2023-02-12T05:51:35;73.87;;;33.90;;
7525;SDS011;3804;50.860;6.208;2023-02-12T05:54:03;74.93;;;34.07;;
7525;SDS011;3804;50.860;6.208;2023-02-12T05:56:32;65.90;;;31.60;;
7525;SDS011;3804;50.860;6.208;2023-02-12T05:59:11;70.13;;;32.57;;
7525;SDS011;3804;50.860;6.208;2023-02-12T06:01:39;68.07;;;32.50;;
7525;SDS011;3804;50.860;6.208;2023-02-12T06:04:07;70.77;;;34.30;;
7525;SDS011;3804;50.860;6.208;2023-02-12T06:06:35;65.90;;;32.67;;
7525;SDS011;3804;50.860;6.208;2023-02-12T06:09:02;68.70;;;32.53;;
7525;SDS011;3804;50.860;6.208;2023-02-12T06:11:29;69.10;;;32.47;;
7525;SDS011;3804;50.860;6.208;2023-02-12T06:13:55;61.47;;;30.17;;
7525;SDS011;3804;50.860;6.208;2023-02-12T06:16:23;65.80;;;31.77;;
7525;SDS011;3804;50.860;6.208;2023-02-12T06:18:51;64.07;;;30.30;;
7525;SDS011;3804;50.860;6.208;2023-02-12T06:21:18;68.23;;;32.30;;
7525;SDS011;3804;50.860;6.208;2023-02-12T06:23:45;64.90;;;31.27;;
7525;SDS011;3804;50.860;6.208;2023-02-12T06:26:12;59.10;;;29.47;;
7525;SDS011;3804;50.860;6.208;2023-02-12T06:28:39;58.33;;;29.97;;
7525;SDS011;3804;50.860;6.208;2023-02-12T06:31:16;59.47;;;29.93;;
7525;SDS011;3804;50.860;6.208;2023-02-12T06:33:43;60.00;;;28.63;;
7525;SDS011;3804;50.860;6.208;2023-02-12T06:36:09;54.80;;;28.70;;
7525;SDS011;3804;50.860;6.208;2023-02-12T06:38:36;53.57;;;29.60;;
7525;SDS011;3804;50.860;6.208;2023-02-12T06:41:03;57.37;;;29.33;;
7525;SDS011;3804;50.860;6.208;2023-02-12T06:43:29;60.40;;;29.30;;
7525;SDS011;3804;50.860;6.208;2023-02-12T06:45:59;54.47;;;28.73;;
7525;SDS011;3804;50.860;6.208;2023-02-12T06:48:25;56.97;;;28.87;;
7525;SDS011;3804;50.860;6.208;2023-02-12T06:50:52;56.40;;;27.43;;
7525;SDS011;3804;50.860;6.208;2023-02-12T06:53:19;57.07;;;28.37;;
7525;SDS011;3804;50.860;6.208;2023-02-12T06:55:45;57.30;;;28.77;;
7525;SDS011;3804;50.860;6.208;2023-02-12T06:58:12;53.37;;;29.43;;
7525;SDS011;3804;50.860;6.208;2023-02-12T07:00:39;62.27;;;31.07;;
7525;SDS011;3804;50.860;6.208;2023-02-12T07:03:05;54.37;;;27.87;;
7525;SDS011;3804;50.860;6.208;2023-02-12T07:05:32;53.40;;;28.70;;
7525;SDS011;3804;50.860;6.208;2023-02-12T07:08:03;55.67;;;29.13;;
7525;SDS011;3804;50.860;6.208;2023-02-12T07:10:30;59.03;;;28.63;;
7525;SDS011;3804;50.860;6.208;2023-02-12T07:12:56;57.27;;;29.23;;
7525;SDS011;3804;50.860;6.208;2023-02-12T07:15:23;58.40;;;29.07;;
7525;SDS011;3804;50.860;6.208;2023-02-12T07:17:50;60.70;;;29.63;;
7525;SDS011;3804;50.860;6.208;2023-02-12T07:20:16;54.37;;;27.97;;
7525;SDS011;3804;50.860;6.208;2023-02-12T07:22:43;56.73;;;28.80;;
7525;SDS011;3804;50.860;6.208;2023-02-12T07:25:10;52.47;;;27.40;;
7525;SDS011;3804;50.860;6.208;2023-02-12T07:27:37;54.40;;;27.70;;
7525;SDS011;3804;50.860;6.208;2023-02-12T07:30:04;62.63;;;28.60;;
7525;SDS011;3804;50.860;6.208;2023-02-12T07:32:32;53.00;;;27.60;;
7525;SDS011;3804;50.860;6.208;2023-02-12T07:34:59;52.03;;;27.90;;
7525;SDS011;3804;50.860;6.208;2023-02-12T07:37:25;49.03;;;27.47;;
7525;SDS011;3804;50.860;6.208;2023-02-12T07:39:52;54.53;;;29.20;;
7525;SDS011;3804;50.860;6.208;2023-02-12T07:42:19;53.43;;;28.53;;
7525;SDS011;3804;50.860;6.208;2023-02-12T07:44:48;55.10;;;27.83;;
7525;SDS011;3804;50.860;6.208;2023-02-12T07:47:15;51.20;;;27.83;;
7525;SDS011;3804;50.860;6.208;2023-02-12T07:49:42;54.23;;;28.37;;
7525;SDS011;3804;50.860;6.208;2023-02-12T07:52:09;55.80;;;28.57;;
7525;SDS011;3804;50.860;6.208;2023-02-12T07:54:38;53.27;;;27.97;;
7525;SDS011;3804;50.860;6.208;2023-02-12T07:57:05;50.20;;;28.13;;
7525;SDS011;3804;50.860;6.208;2023-02-12T07:59:32;51.53;;;27.63;;
7525;SDS011;3804;50.860;6.208;2023-02-12T08:01:58;50.10;;;27.47;;
7525;SDS011;3804;50.860;6.208;2023-02-12T08:04:26;51.03;;;28.47;;
7525;SDS011;3804;50.860;6.208;2023-02-12T08:06:54;50.87;;;27.00;;
7525;SDS011;3804;50.860;6.208;2023-02-12T08:09:23;50.90;;;27.83;;
7525;SDS011;3804;50.860;6.208;2023-02-12T08:11:50;51.07;;;27.43;;
7525;SDS011;3804;50.860;6.208;2023-02-12T08:14:18;48.70;;;27.20;;
7525;SDS011;3804;50.860;6.208;2023-02-12T08:16:46;44.27;;;26.47;;
7525;SDS011;3804;50.860;6.208;2023-02-12T08:19:13;51.17;;;28.43;;
7525;SDS011;3804;50.860;6.208;2023-02-12T08:21:50;57.07;;;30.93;;
7525;SDS011;3804;50.860;6.208;2023-02-12T08:24:17;52.90;;;27.90;;
7525;SDS011;3804;50.860;6.208;2023-02-12T08:26:44;52.37;;;29.10;;
7525;SDS011;3804;50.860;6.208;2023-02-12T08:29:18;53.63;;;30.13;;
7525;SDS011;3804;50.860;6.208;2023-02-12T08:31:46;54.47;;;29.53;;
7525;SDS011;3804;50.860;6.208;2023-02-12T08:34:16;49.80;;;28.33;;
7525;SDS011;3804;50.860;6.208;2023-02-12T08:36:44;49.73;;;27.80;;
7525;SDS011;3804;50.860;6.208;2023-02-12T08:39:12;47.97;;;26.97;;
7525;SDS011;3804;50.860;6.208;2023-02-12T08:41:39;46.77;;;26.30;;
7525;SDS011;3804;50.860;6.208;2023-02-12T08:44:07;45.40;;;25.33;;
7525;SDS011;3804;50.860;6.208;2023-02-12T08:46:35;49.23;;;26.20;;
7525;SDS011;3804;50.860;6.208;2023-02-12T08:49:04;47.70;;;26.00;;
7525;SDS011;3804;50.860;6.208;2023-02-12T08:51:32;47.33;;;25.60;;
7525;SDS011;3804;50.860;6.208;2023-02-12T08:54:00;43.90;;;24.27;;
7525;SDS011;3804;50.860;6.208;2023-02-12T08:56:28;43.97;;;24.40;;
7525;SDS011;3804;50.860;6.208;2023-02-12T08:58:59;42.03;;;24.40;;
7525;SDS011;3804;50.860;6.208;2023-02-12T09:01:26;44.60;;;25.10;;
7525;SDS011;3804;50.860;6.208;2023-02-12T09:03:54;47.27;;;24.23;;
7525;SDS011;3804;50.860;6.208;2023-02-12T09:06:22;44.83;;;25.03;;
7525;SDS011;3804;50.860;6.208;2023-02-12T09:08:49;47.43;;;25.17;;
7525;SDS011;3804;50.860;6.208;2023-02-12T09:11:17;42.70;;;23.40;;
7525;SDS011;3804;50.860;6.208;2023-02-12T09:13:45;41.07;;;23.30;;
7525;SDS011;3804;50.860;6.208;2023-02-12T09:16:12;43.57;;;25.07;;
7525;SDS011;3804;50.860;6.208;2023-02-12T09:18:40;45.67;;;24.13;;
7525;SDS011;3804;50.860;6.208;2023-02-12T09:21:07;43.27;;;25.70;;
7525;SDS011;3804;50.860;6.208;2023-02-12T09:23:35;42.57;;;25.47;;
7525;SDS011;3804;50.860;6.208;2023-02-12T09:26:03;47.40;;;26.67;;
7525;SDS011;3804;50.860;6.208;2023-02-12T09:28:29;47.53;;;26.37;;
7525;SDS011;3804;50.860;6.208;2023-02-12T09:30:56;45.57;;;25.97;;
7525;SDS011;3804;50.860;6.208;2023-02-12T09:33:23;44.00;;;25.40;;
7525;SDS011;3804;50.860;6.208;2023-02-12T09:35:49;44.47;;;25.20;;
7525;SDS011;3804;50.860;6.208;2023-02-12T09:38:17;46.30;;;26.63;;
7525;SDS011;3804;50.860;6.208;2023-02-12T09:40:50;46.00;;;26.47;;
7525;SDS011;3804;50.860;6.208;2023-02-12T09:48:25;49.63;;;25.23;;
7525;SDS011;3804;50.860;6.208;2023-02-12T09:50:56;50.10;;;26.93;;
7525;SDS011;3804;50.860;6.208;2023-02-12T09:53:29;49.90;;;27.03;;
7525;SDS011;3804;50.860;6.208;2023-02-12T09:55:56;44.63;;;25.13;;
7525;SDS011;3804;50.860;6.208;2023-02-12T09:58:28;45.60;;;25.17;;
7525;SDS011;3804;50.860;6.208;2023-02-12T10:00:56;47.63;;;26.87;;
7525;SDS011;3804;50.860;6.208;2023-02-12T10:03:23;49.57;;;26.87;;
7525;SDS011;3804;50.860;6.208;2023-02-12T10:06:01;46.30;;;25.87;;
7525;SDS011;3804;50.860;6.208;2023-02-12T10:11:39;45.70;;;26.90;;
7525;SDS011;3804;50.860;6.208;2023-02-12T10:21:53;47.73;;;26.53;;
7525;SDS011;3804;50.860;6.208;2023-02-12T10:27:17;50.93;;;26.73;;
7525;SDS011;3804;50.860;6.208;2023-02-12T10:29:46;56.57;;;29.83;;
7525;SDS011;3804;50.860;6.208;2023-02-12T10:32:24;52.50;;;28.93;;
7525;SDS011;3804;50.860;6.208;2023-02-12T10:34:53;47.80;;;26.40;;
7525;SDS011;3804;50.860;6.208;2023-02-12T10:37:42;45.57;;;26.90;;
7525;SDS011;3804;50.860;6.208;2023-02-12T10:42:44;44.50;;;24.47;;
7525;SDS011;3804;50.860;6.208;2023-02-12T10:45:14;43.07;;;23.87;;
7525;SDS011;3804;50.860;6.208;2023-02-12T10:47:41;45.30;;;25.80;;
7525;SDS011;3804;50.860;6.208;2023-02-12T10:50:15;45.60;;;25.40;;
7525;SDS011;3804;50.860;6.208;2023-02-12T10:52:47;44.60;;;24.67;;
7525;SDS011;3804;50.860;6.208;2023-02-12T10:55:32;44.50;;;26.00;;
7525;SDS011;3804;50.860;6.208;2023-02-12T10:57:59;47.93;;;31.20;;
7525;SDS011;3804;50.860;6.208;2023-02-12T11:03:04;48.53;;;26.63;;
7525;SDS011;3804;50.860;6.208;2023-02-12T11:05:32;44.27;;;26.37;;
7525;SDS011;3804;50.860;6.208;2023-02-12T11:08:01;43.20;;;24.70;;
7525;SDS011;3804;50.860;6.208;2023-02-12T11:10:28;44.80;;;25.60;;
7525;SDS011;3804;50.860;6.208;2023-02-12T11:12:58;45.47;;;25.50;;
7525;SDS011;3804;50.860;6.208;2023-02-12T11:15:26;44.83;;;24.80;;
7525;SDS011;3804;50.860;6.208;2023-02-12T11:18:19;46.63;;;26.90;;
7525;SDS011;3804;50.860;6.208;2023-02-12T11:20:49;46.40;;;25.77;;
7525;SDS011;3804;50.860;6.208;2023-02-12T11:26:00;48.67;;;25.17;;
7525;SDS011;3804;50.860;6.208;2023-02-12T11:28:27;47.13;;;25.70;;
7525;SDS011;3804;50.860;6.208;2023-02-12T11:30:56;46.93;;;26.73;;
7525;SDS011;3804;50.860;6.208;2023-02-12T11:33:25;43.00;;;25.07;;
7525;SDS011;3804;50.860;6.208;2023-02-12T11:38:23;43.80;;;24.40;;
7525;SDS011;3804;50.860;6.208;2023-02-12T11:40:52;46.37;;;25.70;;
7525;SDS011;3804;50.860;6.208;2023-02-12T11:43:19;46.03;;;25.23;;
7525;SDS011;3804;50.860;6.208;2023-02-12T11:45:46;46.43;;;24.93;;
7525;SDS011;3804;50.860;6.208;2023-02-12T11:48:15;48.73;;;25.50;;
7525;SDS011;3804;50.860;6.208;2023-02-12T11:50:47;44.40;;;26.87;;
7525;SDS011;3804;50.860;6.208;2023-02-12T11:53:22;49.60;;;25.37;;
7525;SDS011;3804;50.860;6.208;2023-02-12T11:55:53;45.37;;;26.43;;
7525;SDS011;3804;50.860;6.208;2023-02-12T11:58:21;48.60;;;26.90;;
7525;SDS011;3804;50.860;6.208;2023-02-12T12:00:53;48.57;;;25.63;;
7525;SDS011;3804;50.860;6.208;2023-02-12T12:03:24;44.57;;;22.67;;
7525;SDS011;3804;50.860;6.208;2023-02-12T12:05:58;50.30;;;26.00;;
7525;SDS011;3804;50.860;6.208;2023-02-12T12:13:48;48.27;;;24.13;;
7525;SDS011;3804;50.860;6.208;2023-02-12T12:19:30;50.37;;;26.97;;
7525;SDS011;3804;50.860;6.208;2023-02-12T12:22:22;48.03;;;25.30;;
7525;SDS011;3804;50.860;6.208;2023-02-12T12:24:55;46.53;;;26.80;;
7525;SDS011;3804;50.860;6.208;2023-02-12T12:33:25;49.87;;;28.40;;
7525;SDS011;3804;50.860;6.208;2023-02-12T12:43:55;49.47;;;28.43;;
7525;SDS011;3804;50.860;6.208;2023-02-12T12:46:30;46.80;;;26.80;;
7525;SDS011;3804;50.860;6.208;2023-02-12T12:49:06;46.13;;;27.87;;
7525;SDS011;3804;50.860;6.208;2023-02-12T12:56:46;41.43;;;23.63;;
7525;SDS011;3804;50.860;6.208;2023-02-12T13:07:29;49.90;;;26.60;;
7525;SDS011;3804;50.860;6.208;2023-02-12T13:17:35;46.10;;;24.07;;
7525;SDS011;3804;50.860;6.208;2023-02-12T13:20:21;38.67;;;22.50;;
7525;SDS011;3804;50.860;6.208;2023-02-12T13:22:59;47.13;;;26.20;;
7525;SDS011;3804;50.860;6.208;2023-02-12T13:25:34;46.60;;;26.20;;
7525;SDS011;3804;50.860;6.208;2023-02-12T13:28:05;45.20;;;24.57;;
7525;SDS011;3804;50.860;6.208;2023-02-12T13:30:36;54.17;;;27.53;;
7525;SDS011;3804;50.860;6.208;2023-02-12T13:35:54;45.10;;;23.47;;
7525;SDS011;3804;50.860;6.208;2023-02-12T13:38:31;46.27;;;26.03;;
7525;SDS011;3804;50.860;6.208;2023-02-12T13:41:01;50.10;;;26.00;;
7525;SDS011;3804;50.860;6.208;2023-02-12T13:51:38;55.60;;;29.60;;
7525;SDS011;3804;50.860;6.208;2023-02-12T13:54:12;49.53;;;27.23;;
7525;SDS011;3804;50.860;6.208;2023-02-12T14:01:55;50.20;;;28.10;;
7525;SDS011;3804;50.860;6.208;2023-02-12T14:04:27;55.77;;;28.83;;
7525;SDS011;3804;50.860;6.208;2023-02-12T14:06:56;50.40;;;27.63;;
7525;SDS011;3804;50.860;6.208;2023-02-12T14:09:37;53.33;;;28.57;;
7525;SDS011;3804;50.860;6.208;2023-02-12T14:12:07;48.97;;;27.77;;
7525;SDS011;3804;50.860;6.208;2023-02-12T14:14:44;46.97;;;26.60;;
7525;SDS011;3804;50.860;6.208;2023-02-12T14:24:54;52.27;;;28.77;;
7525;SDS011;3804;50.860;6.208;2023-02-12T14:29:59;51.27;;;27.67;;
7525;SDS011;3804;50.860;6.208;2023-02-12T14:38:01;52.97;;;29.47;;
7525;SDS011;3804;50.860;6.208;2023-02-12T14:43:29;48.77;;;27.27;;
7525;SDS011;3804;50.860;6.208;2023-02-12T14:48:55;50.50;;;28.17;;
7525;SDS011;3804;50.860;6.208;2023-02-12T14:51:29;53.77;;;29.30;;
7525;SDS011;3804;50.860;6.208;2023-02-12T14:53:56;47.73;;;27.30;;
7525;SDS011;3804;50.860;6.208;2023-02-12T14:56:24;47.67;;;27.60;;
7525;SDS011;3804;50.860;6.208;2023-02-12T14:58:52;52.00;;;29.40;;
7525;SDS011;3804;50.860;6.208;2023-02-12T15:01:28;46.33;;;26.63;;
7525;SDS011;3804;50.860;6.208;2023-02-12T15:03:57;52.77;;;28.50;;
7525;SDS011;3804;50.860;6.208;2023-02-12T15:06:33;56.60;;;28.40;;
7525;SDS011;3804;50.860;6.208;2023-02-12T15:09:02;53.17;;;28.93;;
7525;SDS011;3804;50.860;6.208;2023-02-12T15:11:42;54.40;;;29.93;;
7525;SDS011;3804;50.860;6.208;2023-02-12T15:19:18;55.40;;;31.57;;
7525;SDS011;3804;50.860;6.208;2023-02-12T15:21:46;54.73;;;30.63;;
7525;SDS011;3804;50.860;6.208;2023-02-12T15:24:13;51.97;;;28.53;;
7525;SDS011;3804;50.860;6.208;2023-02-12T15:26:47;55.33;;;28.40;;
7525;SDS011;3804;50.860;6.208;2023-02-12T15:29:22;51.90;;;30.57;;
7525;SDS011;3804;50.860;6.208;2023-02-12T15:31:50;49.00;;;27.53;;
7525;SDS011;3804;50.860;6.208;2023-02-12T15:34:19;48.63;;;27.00;;
7525;SDS011;3804;50.860;6.208;2023-02-12T15:36:47;51.30;;;27.90;;
7525;SDS011;3804;50.860;6.208;2023-02-12T15:39:15;47.83;;;27.57;;
7525;SDS011;3804;50.860;6.208;2023-02-12T15:41:44;46.93;;;27.77;;
7525;SDS011;3804;50.860;6.208;2023-02-12T15:46:58;47.23;;;26.60;;
7525;SDS011;3804;50.860;6.208;2023-02-12T15:49:32;47.07;;;27.10;;
7525;SDS011;3804;50.860;6.208;2023-02-12T15:52:01;47.97;;;25.53;;
7525;SDS011;3804;50.860;6.208;2023-02-12T15:54:28;45.97;;;26.17;;
7525;SDS011;3804;50.860;6.208;2023-02-12T15:56:55;48.67;;;26.50;;
7525;SDS011;3804;50.860;6.208;2023-02-12T15:59:23;46.07;;;25.70;;
7525;SDS011;3804;50.860;6.208;2023-02-12T16:01:54;44.87;;;24.40;;
7525;SDS011;3804;50.860;6.208;2023-02-12T16:04:22;45.53;;;24.80;;
7525;SDS011;3804;50.860;6.208;2023-02-12T16:06:50;41.93;;;23.80;;
7525;SDS011;3804;50.860;6.208;2023-02-12T16:09:31;40.93;;;23.30;;
7525;SDS011;3804;50.860;6.208;2023-02-12T16:12:00;42.27;;;23.53;;
7525;SDS011;3804;50.860;6.208;2023-02-12T16:14:32;44.23;;;24.40;;
7525;SDS011;3804;50.860;6.208;2023-02-12T16:17:02;45.33;;;24.60;;
7525;SDS011;3804;50.860;6.208;2023-02-12T16:19:30;39.47;;;22.60;;
7525;SDS011;3804;50.860;6.208;2023-02-12T16:26:57;41.30;;;23.00;;
7525;SDS011;3804;50.860;6.208;2023-02-12T16:29:24;46.10;;;23.70;;
7525;SDS011;3804;50.860;6.208;2023-02-12T16:31:55;45.40;;;24.70;;
7525;SDS011;3804;50.860;6.208;2023-02-12T16:34:26;45.37;;;23.77;;
7525;SDS011;3804;50.860;6.208;2023-02-12T16:36:53;41.50;;;24.00;;
7525;SDS011;3804;50.860;6.208;2023-02-12T16:39:52;43.90;;;23.23;;
7525;SDS011;3804;50.860;6.208;2023-02-12T16:42:15;50.13;;;27.03;;
7525;SDS011;3804;50.860;6.208;2023-02-12T16:44:44;47.97;;;25.23;;
7525;SDS011;3804;50.860;6.208;2023-02-12T16:47:18;47.80;;;27.23;;
7525;SDS011;3804;50.860;6.208;2023-02-12T16:49:59;49.03;;;25.60;;
7525;SDS011;3804;50.860;6.208;2023-02-12T16:52:39;47.43;;;25.97;;
7525;SDS011;3804;50.860;6.208;2023-02-12T16:55:12;49.47;;;27.37;;
7525;SDS011;3804;50.860;6.208;2023-02-12T16:57:39;48.23;;;26.17;;
7525;SDS011;3804;50.860;6.208;2023-02-12T17:00:07;45.97;;;26.50;;
7525;SDS011;3804;50.860;6.208;2023-02-12T17:02:34;49.20;;;27.67;;
7525;SDS011;3804;50.860;6.208;2023-02-12T17:05:04;50.67;;;26.37;;
7525;SDS011;3804;50.860;6.208;2023-02-12T17:07:32;55.33;;;27.17;;
7525;SDS011;3804;50.860;6.208;2023-02-12T17:09:59;47.40;;;27.83;;
7525;SDS011;3804;50.860;6.208;2023-02-12T17:12:26;53.73;;;28.43;;
7525;SDS011;3804;50.860;6.208;2023-02-12T17:14:53;50.03;;;27.17;;
7525;SDS011;3804;50.860;6.208;2023-02-12T17:17:21;50.67;;;28.10;;
7525;SDS011;3804;50.860;6.208;2023-02-12T17:19:48;53.57;;;28.27;;
7525;SDS011;3804;50.860;6.208;2023-02-12T17:22:17;54.53;;;28.70;;
7525;SDS011;3804;50.860;6.208;2023-02-12T17:24:45;48.87;;;26.77;;
7525;SDS011;3804;50.860;6.208;2023-02-12T17:27:17;46.97;;;27.77;;
7525;SDS011;3804;50.860;6.208;2023-02-12T17:29:44;52.07;;;29.50;;
7525;SDS011;3804;50.860;6.208;2023-02-12T17:32:11;52.10;;;30.60;;
7525;SDS011;3804;50.860;6.208;2023-02-12T17:34:38;53.97;;;31.03;;
7525;SDS011;3804;50.860;6.208;2023-02-12T17:37:14;60.10;;;34.40;;
7525;SDS011;3804;50.860;6.208;2023-02-12T17:39:40;56.07;;;31.50;;
7525;SDS011;3804;50.860;6.208;2023-02-12T17:42:07;51.80;;;29.67;;
7525;SDS011;3804;50.860;6.208;2023-02-12T17:44:34;60.90;;;32.97;;
7525;SDS011;3804;50.860;6.208;2023-02-12T17:47:00;60.13;;;31.80;;
7525;SDS011;3804;50.860;6.208;2023-02-12T17:49:27;59.70;;;31.10;;
7525;SDS011;3804;50.860;6.208;2023-02-12T17:51:55;57.73;;;31.47;;
7525;SDS011;3804;50.860;6.208;2023-02-12T17:54:22;58.70;;;32.77;;
7525;SDS011;3804;50.860;6.208;2023-02-12T17:56:48;58.67;;;31.57;;